sensor_id;sensor_type;location;lat;lon;timestamp;P1;durP1;ratioP1;P2;durP2;ratioP2
27201;SDS011;14717;46.924;15.474;2023-06-26T00:02:10;10.38;;;5.20;;
27201;SDS011;14717;46.924;15.474;2023-06-26T00:04:36;9.40;;;5.18;;
27201;SDS011;14717;46.924;15.474;2023-06-26T00:07:02;8.68;;;5.00;;
27201;SDS011;14717;46.924;15.474;2023-06-26T00:09:28;7.78;;;4.55;;
27201;SDS011;14717;46.924;15.474;2023-06-26T00:11:54;10.15;;;5.55;;
27201;SDS011;14717;46.924;15.474;2023-06-26T00:14:19;9.70;;;5.05;;
27201;SDS011;14717;46.924;15.474;2023-06-26T00:16:46;9.13;;;4.80;;
27201;SDS011;14717;46.924;15.474;2023-06-26T00:19:11;11.50;;;5.53;;
27201;SDS011;14717;46.924;15.474;2023-06-26T00:21:37;11.00;;;5.22;;
27201;SDS011;14717;46.924;15.474;2023-06-26T00:24:02;10.52;;;5.07;;
27201;SDS011;14717;46.924;15.474;2023-06-26T00:26:28;9.63;;;5.13;;
27201;SDS011;14717;46.924;15.474;2023-06-26T00:28:53;10.27;;;5.32;;
27201;SDS011;14717;46.924;15.474;2023-06-26T00:31:18;8.40;;;4.95;;
27201;SDS011;14717;46.924;15.474;2023-06-26T00:33:44;9.15;;;5.38;;
27201;SDS011;14717;46.924;15.474;2023-06-26T00:36:09;9.90;;;5.45;;
27201;SDS011;14717;46.924;15.474;2023-06-26T00:38:35;8.55;;;4.90;;
27201;SDS011;14717;46.924;15.474;2023-06-26T00:41:00;9.05;;;4.65;;
27201;SDS011;14717;46.924;15.474;2023-06-26T00:43:25;11.85;;;5.28;;
27201;SDS011;14717;46.924;15.474;2023-06-26T00:45:51;11.68;;;5.30;;
27201;SDS011;14717;46.924;15.474;2023-06-26T00:48:16;7.93;;;4.88;;
27201;SDS011;14717;46.924;15.474;2023-06-26T00:50:43;10.00;;;5.50;;
27201;SDS011;14717;46.924;15.474;2023-06-26T00:53:09;9.43;;;5.40;;
27201;SDS011;14717;46.924;15.474;2023-06-26T00:55:35;9.60;;;5.13;;
27201;SDS011;14717;46.924;15.474;2023-06-26T00:58:00;9.05;;;5.30;;
27201;SDS011;14717;46.924;15.474;2023-06-26T01:00:26;8.48;;;5.40;;
27201;SDS011;14717;46.924;15.474;2023-06-26T01:02:51;9.73;;;5.30;;
27201;SDS011;14717;46.924;15.474;2023-06-26T01:05:17;9.90;;;5.30;;
27201;SDS011;14717;46.924;15.474;2023-06-26T01:07:46;9.98;;;5.15;;
27201;SDS011;14717;46.924;15.474;2023-06-26T01:10:12;8.85;;;4.82;;
27201;SDS011;14717;46.924;15.474;2023-06-26T01:12:38;10.00;;;5.13;;
27201;SDS011;14717;46.924;15.474;2023-06-26T01:15:04;9.90;;;5.00;;
27201;SDS011;14717;46.924;15.474;2023-06-26T01:17:29;9.30;;;5.05;;
27201;SDS011;14717;46.924;15.474;2023-06-26T01:19:57;9.25;;;4.82;;
27201;SDS011;14717;46.924;15.474;2023-06-26T01:27:55;13.35;;;5.07;;
27201;SDS011;14717;46.924;15.474;2023-06-26T01:30:21;8.35;;;5.22;;
27201;SDS011;14717;46.924;15.474;2023-06-26T01:32:47;9.70;;;4.50;;
27201;SDS011;14717;46.924;15.474;2023-06-26T01:35:13;8.90;;;5.07;;
27201;SDS011;14717;46.924;15.474;2023-06-26T01:37:40;9.63;;;5.13;;
27201;SDS011;14717;46.924;15.474;2023-06-26T01:40:05;12.88;;;5.70;;
27201;SDS011;14717;46.924;15.474;2023-06-26T01:42:32;11.60;;;5.70;;
27201;SDS011;14717;46.924;15.474;2023-06-26T01:44:58;8.85;;;5.28;;
27201;SDS011;14717;46.924;15.474;2023-06-26T01:47:28;9.23;;;5.30;;
27201;SDS011;14717;46.924;15.474;2023-06-26T01:50:00;10.90;;;5.45;;
27201;SDS011;14717;46.924;15.474;2023-06-26T01:55:21;8.93;;;5.07;;
27201;SDS011;14717;46.924;15.474;2023-06-26T01:57:48;10.40;;;5.55;;
27201;SDS011;14717;46.924;15.474;2023-06-26T02:00:14;11.50;;;5.45;;
27201;SDS011;14717;46.924;15.474;2023-06-26T02:02:43;10.00;;;5.72;;
27201;SDS011;14717;46.924;15.474;2023-06-26T02:05:09;10.63;;;5.13;;
27201;SDS011;14717;46.924;15.474;2023-06-26T02:07:34;8.80;;;5.20;;
27201;SDS011;14717;46.924;15.474;2023-06-26T02:09:59;9.00;;;5.10;;
27201;SDS011;14717;46.924;15.474;2023-06-26T02:12:25;10.13;;;5.57;;
27201;SDS011;14717;46.924;15.474;2023-06-26T02:14:50;9.23;;;5.13;;
27201;SDS011;14717;46.924;15.474;2023-06-26T02:19:41;8.65;;;4.32;;
27201;SDS011;14717;46.924;15.474;2023-06-26T02:22:12;8.68;;;5.03;;
27201;SDS011;14717;46.924;15.474;2023-06-26T02:24:41;7.75;;;4.28;;
27201;SDS011;14717;46.924;15.474;2023-06-26T02:27:06;11.23;;;5.05;;
27201;SDS011;14717;46.924;15.474;2023-06-26T02:29:32;9.55;;;5.32;;
27201;SDS011;14717;46.924;15.474;2023-06-26T02:31:57;8.43;;;4.78;;
27201;SDS011;14717;46.924;15.474;2023-06-26T02:34:22;9.57;;;4.93;;
27201;SDS011;14717;46.924;15.474;2023-06-26T02:36:48;9.68;;;4.65;;
27201;SDS011;14717;46.924;15.474;2023-06-26T02:39:13;9.55;;;5.18;;
27201;SDS011;14717;46.924;15.474;2023-06-26T02:41:39;9.30;;;4.78;;
27201;SDS011;14717;46.924;15.474;2023-06-26T02:46:31;8.25;;;4.50;;
27201;SDS011;14717;46.924;15.474;2023-06-26T02:51:21;9.07;;;4.88;;
27201;SDS011;14717;46.924;15.474;2023-06-26T02:56:12;10.23;;;4.93;;
27201;SDS011;14717;46.924;15.474;2023-06-26T03:01:03;8.87;;;4.93;;
27201;SDS011;14717;46.924;15.474;2023-06-26T03:03:28;9.55;;;4.88;;
27201;SDS011;14717;46.924;15.474;2023-06-26T03:08:18;9.60;;;5.20;;
27201;SDS011;14717;46.924;15.474;2023-06-26T03:13:09;9.83;;;5.43;;
27201;SDS011;14717;46.924;15.474;2023-06-26T03:18:00;11.18;;;5.05;;
27201;SDS011;14717;46.924;15.474;2023-06-26T03:20:26;8.35;;;4.88;;
27201;SDS011;14717;46.924;15.474;2023-06-26T03:25:17;8.23;;;4.40;;
27201;SDS011;14717;46.924;15.474;2023-06-26T03:27:42;7.88;;;4.60;;
27201;SDS011;14717;46.924;15.474;2023-06-26T03:32:33;8.13;;;4.55;;
27201;SDS011;14717;46.924;15.474;2023-06-26T03:34:58;8.68;;;4.78;;
27201;SDS011;14717;46.924;15.474;2023-06-26T03:37:25;9.23;;;5.25;;
27201;SDS011;14717;46.924;15.474;2023-06-26T03:42:16;10.90;;;5.23;;
27201;SDS011;14717;46.924;15.474;2023-06-26T03:44:41;11.02;;;5.25;;
27201;SDS011;14717;46.924;15.474;2023-06-26T03:49:32;10.10;;;5.43;;
27201;SDS011;14717;46.924;15.474;2023-06-26T03:54:23;12.23;;;5.87;;
27201;SDS011;14717;46.924;15.474;2023-06-26T03:56:48;10.65;;;5.85;;
27201;SDS011;14717;46.924;15.474;2023-06-26T04:01:39;11.68;;;5.40;;
27201;SDS011;14717;46.924;15.474;2023-06-26T04:06:30;12.85;;;5.43;;
27201;SDS011;14717;46.924;15.474;2023-06-26T04:11:22;10.98;;;5.40;;
27201;SDS011;14717;46.924;15.474;2023-06-26T04:16:12;8.53;;;4.93;;
27201;SDS011;14717;46.924;15.474;2023-06-26T04:21:04;12.93;;;6.30;;
27201;SDS011;14717;46.924;15.474;2023-06-26T04:23:33;11.23;;;5.93;;
27201;SDS011;14717;46.924;15.474;2023-06-26T04:28:25;8.68;;;5.00;;
27201;SDS011;14717;46.924;15.474;2023-06-26T04:33:15;12.65;;;6.03;;
27201;SDS011;14717;46.924;15.474;2023-06-26T04:38:06;10.73;;;6.10;;
27201;SDS011;14717;46.924;15.474;2023-06-26T04:42:56;11.63;;;5.27;;
27201;SDS011;14717;46.924;15.474;2023-06-26T04:47:47;10.57;;;5.70;;
27201;SDS011;14717;46.924;15.474;2023-06-26T04:52:38;13.13;;;6.10;;
27201;SDS011;14717;46.924;15.474;2023-06-26T04:57:28;9.18;;;5.45;;
27201;SDS011;14717;46.924;15.474;2023-06-26T05:02:19;12.55;;;5.78;;
27201;SDS011;14717;46.924;15.474;2023-06-26T05:07:12;9.45;;;6.07;;
27201;SDS011;14717;46.924;15.474;2023-06-26T05:12:02;10.07;;;5.75;;
27201;SDS011;14717;46.924;15.474;2023-06-26T05:16:53;10.43;;;5.83;;
27201;SDS011;14717;46.924;15.474;2023-06-26T05:21:44;10.63;;;6.10;;
27201;SDS011;14717;46.924;15.474;2023-06-26T05:24:10;12.68;;;6.05;;
27201;SDS011;14717;46.924;15.474;2023-06-26T05:26:38;13.13;;;6.40;;
27201;SDS011;14717;46.924;15.474;2023-06-26T05:29:04;11.73;;;6.18;;
27201;SDS011;14717;46.924;15.474;2023-06-26T05:31:31;13.50;;;6.15;;
27201;SDS011;14717;46.924;15.474;2023-06-26T05:33:58;13.77;;;6.72;;
27201;SDS011;14717;46.924;15.474;2023-06-26T05:36:27;16.13;;;6.70;;
27201;SDS011;14717;46.924;15.474;2023-06-26T05:38:54;14.57;;;6.90;;
27201;SDS011;14717;46.924;15.474;2023-06-26T05:41:21;15.43;;;6.75;;
27201;SDS011;14717;46.924;15.474;2023-06-26T05:43:47;14.27;;;6.30;;
27201;SDS011;14717;46.924;15.474;2023-06-26T05:48:37;14.25;;;6.95;;
27201;SDS011;14717;46.924;15.474;2023-06-26T05:51:03;12.30;;;6.70;;
27201;SDS011;14717;46.924;15.474;2023-06-26T05:53:29;12.75;;;6.90;;
27201;SDS011;14717;46.924;15.474;2023-06-26T05:55:55;13.23;;;7.68;;
27201;SDS011;14717;46.924;15.474;2023-06-26T05:58:20;11.90;;;6.88;;
27201;SDS011;14717;46.924;15.474;2023-06-26T06:00:48;13.32;;;6.32;;
27201;SDS011;14717;46.924;15.474;2023-06-26T06:03:14;12.43;;;7.07;;
27201;SDS011;14717;46.924;15.474;2023-06-26T06:05:39;12.63;;;6.88;;
27201;SDS011;14717;46.924;15.474;2023-06-26T06:08:04;14.50;;;8.20;;
27201;SDS011;14717;46.924;15.474;2023-06-26T06:10:30;13.55;;;6.75;;
27201;SDS011;14717;46.924;15.474;2023-06-26T06:12:55;12.95;;;6.47;;
27201;SDS011;14717;46.924;15.474;2023-06-26T06:15:21;11.63;;;6.75;;
27201;SDS011;14717;46.924;15.474;2023-06-26T06:17:46;12.85;;;6.63;;
27201;SDS011;14717;46.924;15.474;2023-06-26T06:20:11;11.15;;;6.97;;
27201;SDS011;14717;46.924;15.474;2023-06-26T06:22:37;13.50;;;7.10;;
27201;SDS011;14717;46.924;15.474;2023-06-26T06:25:02;12.77;;;6.07;;
27201;SDS011;14717;46.924;15.474;2023-06-26T06:27:28;12.95;;;7.10;;
27201;SDS011;14717;46.924;15.474;2023-06-26T06:29:54;16.33;;;6.68;;
27201;SDS011;14717;46.924;15.474;2023-06-26T06:32:19;12.00;;;6.35;;
27201;SDS011;14717;46.924;15.474;2023-06-26T06:34:44;11.18;;;6.63;;
27201;SDS011;14717;46.924;15.474;2023-06-26T06:37:10;11.85;;;6.43;;
27201;SDS011;14717;46.924;15.474;2023-06-26T06:39:35;11.15;;;6.43;;
27201;SDS011;14717;46.924;15.474;2023-06-26T06:42:00;11.82;;;6.80;;
27201;SDS011;14717;46.924;15.474;2023-06-26T06:44:26;10.60;;;6.25;;
27201;SDS011;14717;46.924;15.474;2023-06-26T06:46:51;14.20;;;7.03;;
27201;SDS011;14717;46.924;15.474;2023-06-26T06:49:16;15.20;;;6.97;;
27201;SDS011;14717;46.924;15.474;2023-06-26T06:51:42;10.20;;;6.22;;
27201;SDS011;14717;46.924;15.474;2023-06-26T06:54:07;10.77;;;6.32;;
27201;SDS011;14717;46.924;15.474;2023-06-26T06:56:32;11.70;;;6.45;;
27201;SDS011;14717;46.924;15.474;2023-06-26T06:58:58;11.85;;;6.60;;
27201;SDS011;14717;46.924;15.474;2023-06-26T07:01:23;11.00;;;6.47;;
27201;SDS011;14717;46.924;15.474;2023-06-26T07:03:49;11.55;;;6.38;;
27201;SDS011;14717;46.924;15.474;2023-06-26T07:06:14;11.00;;;6.07;;
27201;SDS011;14717;46.924;15.474;2023-06-26T07:08:39;10.40;;;5.93;;
27201;SDS011;14717;46.924;15.474;2023-06-26T07:11:04;11.30;;;6.40;;
27201;SDS011;14717;46.924;15.474;2023-06-26T07:13:30;12.40;;;6.30;;
27201;SDS011;14717;46.924;15.474;2023-06-26T07:15:55;11.57;;;6.35;;
27201;SDS011;14717;46.924;15.474;2023-06-26T07:18:21;10.40;;;6.00;;
27201;SDS011;14717;46.924;15.474;2023-06-26T07:20:46;11.35;;;5.70;;
27201;SDS011;14717;46.924;15.474;2023-06-26T07:23:11;12.25;;;6.85;;
27201;SDS011;14717;46.924;15.474;2023-06-26T07:25:37;10.27;;;6.00;;
27201;SDS011;14717;46.924;15.474;2023-06-26T07:28:02;9.90;;;5.70;;
27201;SDS011;14717;46.924;15.474;2023-06-26T07:30:28;11.05;;;6.55;;
27201;SDS011;14717;46.924;15.474;2023-06-26T07:32:53;10.65;;;6.35;;
27201;SDS011;14717;46.924;15.474;2023-06-26T07:35:18;12.07;;;6.03;;
27201;SDS011;14717;46.924;15.474;2023-06-26T07:37:44;12.80;;;6.35;;
27201;SDS011;14717;46.924;15.474;2023-06-26T07:40:09;12.48;;;6.70;;
27201;SDS011;14717;46.924;15.474;2023-06-26T07:42:35;10.90;;;6.03;;
27201;SDS011;14717;46.924;15.474;2023-06-26T07:45:00;10.35;;;5.72;;
27201;SDS011;14717;46.924;15.474;2023-06-26T07:47:26;9.40;;;5.93;;
27201;SDS011;14717;46.924;15.474;2023-06-26T07:49:51;10.38;;;6.10;;
27201;SDS011;14717;46.924;15.474;2023-06-26T07:52:18;10.27;;;6.05;;
27201;SDS011;14717;46.924;15.474;2023-06-26T07:54:44;11.88;;;5.78;;
27201;SDS011;14717;46.924;15.474;2023-06-26T07:57:09;9.50;;;5.50;;
27201;SDS011;14717;46.924;15.474;2023-06-26T07:59:36;8.93;;;5.40;;
27201;SDS011;14717;46.924;15.474;2023-06-26T08:02:01;8.93;;;5.50;;
27201;SDS011;14717;46.924;15.474;2023-06-26T08:04:28;12.18;;;6.30;;
27201;SDS011;14717;46.924;15.474;2023-06-26T08:06:57;9.48;;;5.70;;
27201;SDS011;14717;46.924;15.474;2023-06-26T08:09:24;11.18;;;5.72;;
27201;SDS011;14717;46.924;15.474;2023-06-26T08:11:50;10.30;;;5.47;;
27201;SDS011;14717;46.924;15.474;2023-06-26T08:14:16;7.93;;;5.50;;
27201;SDS011;14717;46.924;15.474;2023-06-26T08:16:42;10.48;;;5.45;;
27201;SDS011;14717;46.924;15.474;2023-06-26T08:19:11;9.02;;;5.20;;
27201;SDS011;14717;46.924;15.474;2023-06-26T08:21:37;8.57;;;5.10;;
27201;SDS011;14717;46.924;15.474;2023-06-26T08:24:03;8.85;;;4.68;;
27201;SDS011;14717;46.924;15.474;2023-06-26T08:26:28;7.35;;;4.88;;
27201;SDS011;14717;46.924;15.474;2023-06-26T08:28:54;8.73;;;5.22;;
27201;SDS011;14717;46.924;15.474;2023-06-26T08:31:19;9.43;;;5.10;;
27201;SDS011;14717;46.924;15.474;2023-06-26T08:33:45;8.80;;;4.70;;
27201;SDS011;14717;46.924;15.474;2023-06-26T08:36:11;9.45;;;4.90;;
27201;SDS011;14717;46.924;15.474;2023-06-26T08:38:36;7.18;;;4.72;;
27201;SDS011;14717;46.924;15.474;2023-06-26T08:41:01;8.77;;;5.32;;
27201;SDS011;14717;46.924;15.474;2023-06-26T08:43:27;8.70;;;5.25;;
27201;SDS011;14717;46.924;15.474;2023-06-26T08:45:53;9.77;;;5.30;;
27201;SDS011;14717;46.924;15.474;2023-06-26T08:48:19;7.53;;;4.70;;
27201;SDS011;14717;46.924;15.474;2023-06-26T08:50:48;6.97;;;4.38;;
27201;SDS011;14717;46.924;15.474;2023-06-26T08:53:33;7.47;;;4.35;;
27201;SDS011;14717;46.924;15.474;2023-06-26T08:56:08;8.35;;;4.50;;
27201;SDS011;14717;46.924;15.474;2023-06-26T08:58:35;9.25;;;4.70;;
27201;SDS011;14717;46.924;15.474;2023-06-26T09:01:02;7.70;;;4.57;;
27201;SDS011;14717;46.924;15.474;2023-06-26T09:03:30;8.38;;;4.20;;
27201;SDS011;14717;46.924;15.474;2023-06-26T09:05:56;7.57;;;4.43;;
27201;SDS011;14717;46.924;15.474;2023-06-26T09:08:21;8.52;;;4.90;;
27201;SDS011;14717;46.924;15.474;2023-06-26T09:10:47;8.57;;;4.82;;
27201;SDS011;14717;46.924;15.474;2023-06-26T09:13:12;9.02;;;4.85;;
27201;SDS011;14717;46.924;15.474;2023-06-26T09:15:38;8.75;;;4.97;;
27201;SDS011;14717;46.924;15.474;2023-06-26T09:18:07;7.60;;;4.88;;
27201;SDS011;14717;46.924;15.474;2023-06-26T09:20:33;9.30;;;4.90;;
27201;SDS011;14717;46.924;15.474;2023-06-26T09:22:58;8.13;;;4.85;;
27201;SDS011;14717;46.924;15.474;2023-06-26T09:25:25;8.40;;;4.85;;
27201;SDS011;14717;46.924;15.474;2023-06-26T09:27:50;8.00;;;4.80;;
27201;SDS011;14717;46.924;15.474;2023-06-26T09:30:19;9.05;;;5.13;;
27201;SDS011;14717;46.924;15.474;2023-06-26T09:32:45;8.35;;;5.20;;
27201;SDS011;14717;46.924;15.474;2023-06-26T09:35:10;7.45;;;4.88;;
27201;SDS011;14717;46.924;15.474;2023-06-26T09:37:37;7.53;;;4.78;;
27201;SDS011;14717;46.924;15.474;2023-06-26T09:40:03;7.03;;;4.57;;
27201;SDS011;14717;46.924;15.474;2023-06-26T09:42:29;9.65;;;5.50;;
27201;SDS011;14717;46.924;15.474;2023-06-26T09:44:55;6.85;;;4.55;;
27201;SDS011;14717;46.924;15.474;2023-06-26T09:47:21;7.85;;;5.05;;
27201;SDS011;14717;46.924;15.474;2023-06-26T09:49:47;8.75;;;5.20;;
27201;SDS011;14717;46.924;15.474;2023-06-26T09:52:16;7.45;;;4.72;;
27201;SDS011;14717;46.924;15.474;2023-06-26T09:54:43;6.75;;;4.53;;
27201;SDS011;14717;46.924;15.474;2023-06-26T09:57:17;9.45;;;4.75;;
27201;SDS011;14717;46.924;15.474;2023-06-26T09:59:44;8.57;;;4.40;;
27201;SDS011;14717;46.924;15.474;2023-06-26T10:02:10;8.60;;;4.95;;
27201;SDS011;14717;46.924;15.474;2023-06-26T10:04:37;8.98;;;4.57;;
27201;SDS011;14717;46.924;15.474;2023-06-26T10:07:06;6.53;;;3.72;;
27201;SDS011;14717;46.924;15.474;2023-06-26T10:09:35;8.20;;;4.53;;
27201;SDS011;14717;46.924;15.474;2023-06-26T10:12:11;8.18;;;4.50;;
27201;SDS011;14717;46.924;15.474;2023-06-26T10:14:42;7.75;;;4.82;;
27201;SDS011;14717;46.924;15.474;2023-06-26T10:17:09;6.65;;;4.78;;
27201;SDS011;14717;46.924;15.474;2023-06-26T10:19:37;6.85;;;4.47;;
27201;SDS011;14717;46.924;15.474;2023-06-26T10:22:04;6.70;;;4.10;;
27201;SDS011;14717;46.924;15.474;2023-06-26T10:24:31;7.35;;;4.10;;
27201;SDS011;14717;46.924;15.474;2023-06-26T10:27:02;7.05;;;4.53;;
27201;SDS011;14717;46.924;15.474;2023-06-26T10:29:32;7.50;;;4.20;;
27201;SDS011;14717;46.924;15.474;2023-06-26T10:32:00;6.55;;;4.10;;
27201;SDS011;14717;46.924;15.474;2023-06-26T10:34:29;6.88;;;4.13;;
27201;SDS011;14717;46.924;15.474;2023-06-26T10:37:01;6.43;;;4.43;;
27201;SDS011;14717;46.924;15.474;2023-06-26T10:39:32;6.05;;;4.13;;
27201;SDS011;14717;46.924;15.474;2023-06-26T10:42:12;6.82;;;4.38;;
27201;SDS011;14717;46.924;15.474;2023-06-26T10:44:42;6.68;;;4.28;;
27201;SDS011;14717;46.924;15.474;2023-06-26T10:47:12;6.65;;;4.60;;
27201;SDS011;14717;46.924;15.474;2023-06-26T10:49:53;7.45;;;4.35;;
27201;SDS011;14717;46.924;15.474;2023-06-26T10:52:19;8.65;;;5.18;;
27201;SDS011;14717;46.924;15.474;2023-06-26T10:54:44;7.47;;;4.40;;
27201;SDS011;14717;46.924;15.474;2023-06-26T10:57:10;7.18;;;4.15;;
27201;SDS011;14717;46.924;15.474;2023-06-26T10:59:38;7.07;;;4.30;;
27201;SDS011;14717;46.924;15.474;2023-06-26T11:02:04;7.07;;;4.20;;
27201;SDS011;14717;46.924;15.474;2023-06-26T11:04:46;7.20;;;4.50;;
27201;SDS011;14717;46.924;15.474;2023-06-26T11:07:15;6.30;;;4.05;;
27201;SDS011;14717;46.924;15.474;2023-06-26T11:09:54;7.68;;;4.75;;
27201;SDS011;14717;46.924;15.474;2023-06-26T11:12:34;8.70;;;4.65;;
27201;SDS011;14717;46.924;15.474;2023-06-26T11:15:00;6.25;;;4.32;;
27201;SDS011;14717;46.924;15.474;2023-06-26T11:17:26;8.35;;;4.20;;
27201;SDS011;14717;46.924;15.474;2023-06-26T11:19:52;8.48;;;4.57;;
27201;SDS011;14717;46.924;15.474;2023-06-26T11:22:17;7.20;;;4.65;;
27201;SDS011;14717;46.924;15.474;2023-06-26T11:24:44;6.40;;;4.47;;
27201;SDS011;14717;46.924;15.474;2023-06-26T11:27:09;6.70;;;4.20;;
27201;SDS011;14717;46.924;15.474;2023-06-26T11:29:35;7.03;;;4.35;;
27201;SDS011;14717;46.924;15.474;2023-06-26T11:32:01;7.05;;;4.18;;
27201;SDS011;14717;46.924;15.474;2023-06-26T11:34:30;7.28;;;4.20;;
27201;SDS011;14717;46.924;15.474;2023-06-26T11:36:56;6.68;;;4.15;;
27201;SDS011;14717;46.924;15.474;2023-06-26T11:39:22;6.22;;;4.07;;
27201;SDS011;14717;46.924;15.474;2023-06-26T11:41:47;9.40;;;4.15;;
27201;SDS011;14717;46.924;15.474;2023-06-26T11:44:14;5.75;;;3.75;;
27201;SDS011;14717;46.924;15.474;2023-06-26T11:46:45;6.05;;;4.10;;
27201;SDS011;14717;46.924;15.474;2023-06-26T11:49:11;7.25;;;4.20;;
27201;SDS011;14717;46.924;15.474;2023-06-26T11:51:36;6.30;;;4.00;;
27201;SDS011;14717;46.924;15.474;2023-06-26T11:54:02;6.82;;;4.30;;
27201;SDS011;14717;46.924;15.474;2023-06-26T11:56:29;6.40;;;4.32;;
27201;SDS011;14717;46.924;15.474;2023-06-26T11:58:55;7.47;;;3.70;;
27201;SDS011;14717;46.924;15.474;2023-06-26T12:01:25;7.07;;;3.83;;
27201;SDS011;14717;46.924;15.474;2023-06-26T12:03:54;6.90;;;4.05;;
27201;SDS011;14717;46.924;15.474;2023-06-26T12:06:23;5.03;;;3.60;;
27201;SDS011;14717;46.924;15.474;2023-06-26T12:08:49;6.55;;;3.95;;
27201;SDS011;14717;46.924;15.474;2023-06-26T12:11:17;7.63;;;4.20;;
27201;SDS011;14717;46.924;15.474;2023-06-26T12:13:43;5.97;;;3.88;;
27201;SDS011;14717;46.924;15.474;2023-06-26T12:16:08;6.15;;;3.88;;
27201;SDS011;14717;46.924;15.474;2023-06-26T12:18:34;7.07;;;4.05;;
27201;SDS011;14717;46.924;15.474;2023-06-26T12:21:00;6.47;;;3.92;;
27201;SDS011;14717;46.924;15.474;2023-06-26T12:23:32;7.15;;;4.28;;
27201;SDS011;14717;46.924;15.474;2023-06-26T12:26:18;7.22;;;4.25;;
27201;SDS011;14717;46.924;15.474;2023-06-26T12:28:45;7.95;;;3.67;;
27201;SDS011;14717;46.924;15.474;2023-06-26T12:31:14;6.00;;;3.83;;
27201;SDS011;14717;46.924;15.474;2023-06-26T12:33:43;6.05;;;3.90;;
27201;SDS011;14717;46.924;15.474;2023-06-26T12:36:12;7.20;;;4.30;;
27201;SDS011;14717;46.924;15.474;2023-06-26T12:38:39;6.07;;;3.85;;
27201;SDS011;14717;46.924;15.474;2023-06-26T12:41:11;6.53;;;3.72;;
27201;SDS011;14717;46.924;15.474;2023-06-26T12:43:38;6.45;;;3.97;;
27201;SDS011;14717;46.924;15.474;2023-06-26T12:46:04;8.18;;;3.88;;
27201;SDS011;14717;46.924;15.474;2023-06-26T12:48:36;6.57;;;3.50;;
27201;SDS011;14717;46.924;15.474;2023-06-26T12:51:14;5.38;;;3.47;;
27201;SDS011;14717;46.924;15.474;2023-06-26T12:53:42;7.13;;;3.72;;
27201;SDS011;14717;46.924;15.474;2023-06-26T12:56:07;5.82;;;3.80;;
27201;SDS011;14717;46.924;15.474;2023-06-26T12:58:34;6.22;;;3.55;;
27201;SDS011;14717;46.924;15.474;2023-06-26T13:01:04;6.82;;;4.03;;
27201;SDS011;14717;46.924;15.474;2023-06-26T13:03:32;6.38;;;3.92;;
27201;SDS011;14717;46.924;15.474;2023-06-26T13:05:57;6.93;;;4.07;;
27201;SDS011;14717;46.924;15.474;2023-06-26T13:08:23;6.15;;;3.63;;
27201;SDS011;14717;46.924;15.474;2023-06-26T13:10:48;6.13;;;3.78;;
27201;SDS011;14717;46.924;15.474;2023-06-26T13:13:14;7.00;;;3.85;;
27201;SDS011;14717;46.924;15.474;2023-06-26T13:15:39;7.20;;;3.90;;
27201;SDS011;14717;46.924;15.474;2023-06-26T13:18:04;5.68;;;3.53;;
27201;SDS011;14717;46.924;15.474;2023-06-26T13:20:30;5.82;;;3.67;;
27201;SDS011;14717;46.924;15.474;2023-06-26T13:22:55;6.45;;;4.07;;
27201;SDS011;14717;46.924;15.474;2023-06-26T13:25:21;5.30;;;3.22;;
27201;SDS011;14717;46.924;15.474;2023-06-26T13:27:47;7.00;;;4.18;;
27201;SDS011;14717;46.924;15.474;2023-06-26T13:30:13;5.97;;;4.22;;
27201;SDS011;14717;46.924;15.474;2023-06-26T13:32:39;7.35;;;4.30;;
27201;SDS011;14717;46.924;15.474;2023-06-26T13:35:04;7.30;;;3.97;;
27201;SDS011;14717;46.924;15.474;2023-06-26T13:37:31;7.68;;;3.90;;
27201;SDS011;14717;46.924;15.474;2023-06-26T13:39:56;7.18;;;3.78;;
27201;SDS011;14717;46.924;15.474;2023-06-26T13:42:24;6.03;;;3.75;;
27201;SDS011;14717;46.924;15.474;2023-06-26T13:44:49;6.80;;;3.50;;
27201;SDS011;14717;46.924;15.474;2023-06-26T13:47:15;7.68;;;4.10;;
27201;SDS011;14717;46.924;15.474;2023-06-26T13:49:40;6.47;;;3.83;;
27201;SDS011;14717;46.924;15.474;2023-06-26T13:52:06;5.55;;;3.90;;
27201;SDS011;14717;46.924;15.474;2023-06-26T13:54:35;5.53;;;3.72;;
27201;SDS011;14717;46.924;15.474;2023-06-26T13:57:01;5.70;;;3.67;;
27201;SDS011;14717;46.924;15.474;2023-06-26T13:59:27;7.07;;;3.80;;
27201;SDS011;14717;46.924;15.474;2023-06-26T14:01:53;7.00;;;3.75;;
27201;SDS011;14717;46.924;15.474;2023-06-26T14:04:19;6.45;;;3.80;;
27201;SDS011;14717;46.924;15.474;2023-06-26T14:06:44;7.38;;;4.00;;
27201;SDS011;14717;46.924;15.474;2023-06-26T14:09:10;7.32;;;4.00;;
27201;SDS011;14717;46.924;15.474;2023-06-26T14:11:36;6.05;;;3.80;;
27201;SDS011;14717;46.924;15.474;2023-06-26T14:14:01;6.57;;;3.95;;
27201;SDS011;14717;46.924;15.474;2023-06-26T14:16:26;6.75;;;4.03;;
27201;SDS011;14717;46.924;15.474;2023-06-26T14:18:53;8.98;;;4.00;;
27201;SDS011;14717;46.924;15.474;2023-06-26T14:21:19;6.45;;;3.72;;
27201;SDS011;14717;46.924;15.474;2023-06-26T14:23:45;7.00;;;4.10;;
27201;SDS011;14717;46.924;15.474;2023-06-26T14:26:10;13.15;;;4.15;;
27201;SDS011;14717;46.924;15.474;2023-06-26T14:28:36;7.20;;;4.13;;
27201;SDS011;14717;46.924;15.474;2023-06-26T14:31:02;6.97;;;4.25;;
27201;SDS011;14717;46.924;15.474;2023-06-26T14:33:27;7.03;;;3.90;;
27201;SDS011;14717;46.924;15.474;2023-06-26T14:35:52;7.40;;;4.30;;
27201;SDS011;14717;46.924;15.474;2023-06-26T14:38:18;6.28;;;3.97;;
27201;SDS011;14717;46.924;15.474;2023-06-26T14:40:43;6.00;;;3.97;;
27201;SDS011;14717;46.924;15.474;2023-06-26T14:43:08;7.80;;;3.85;;
27201;SDS011;14717;46.924;15.474;2023-06-26T14:45:34;6.00;;;3.47;;
27201;SDS011;14717;46.924;15.474;2023-06-26T14:48:00;7.07;;;4.10;;
27201;SDS011;14717;46.924;15.474;2023-06-26T14:50:25;6.28;;;3.80;;
27201;SDS011;14717;46.924;15.474;2023-06-26T14:52:50;6.03;;;3.80;;
27201;SDS011;14717;46.924;15.474;2023-06-26T14:55:16;7.00;;;4.28;;
27201;SDS011;14717;46.924;15.474;2023-06-26T14:57:41;6.78;;;3.88;;
27201;SDS011;14717;46.924;15.474;2023-06-26T15:00:07;6.75;;;4.05;;
27201;SDS011;14717;46.924;15.474;2023-06-26T15:02:33;7.07;;;3.75;;
27201;SDS011;14717;46.924;15.474;2023-06-26T15:04:59;6.82;;;4.18;;
27201;SDS011;14717;46.924;15.474;2023-06-26T15:07:24;5.93;;;3.50;;
27201;SDS011;14717;46.924;15.474;2023-06-26T15:09:50;5.90;;;3.70;;
27201;SDS011;14717;46.924;15.474;2023-06-26T15:12:15;5.85;;;4.13;;
27201;SDS011;14717;46.924;15.474;2023-06-26T15:14:41;7.45;;;4.20;;
27201;SDS011;14717;46.924;15.474;2023-06-26T15:17:06;7.07;;;3.72;;
27201;SDS011;14717;46.924;15.474;2023-06-26T15:19:31;6.80;;;4.00;;
27201;SDS011;14717;46.924;15.474;2023-06-26T15:21:57;6.95;;;4.03;;
27201;SDS011;14717;46.924;15.474;2023-06-26T15:24:23;7.25;;;3.63;;
27201;SDS011;14717;46.924;15.474;2023-06-26T15:26:48;5.72;;;3.75;;
27201;SDS011;14717;46.924;15.474;2023-06-26T15:29:14;6.13;;;3.85;;
27201;SDS011;14717;46.924;15.474;2023-06-26T15:31:40;7.65;;;4.60;;
27201;SDS011;14717;46.924;15.474;2023-06-26T15:34:06;8.40;;;4.07;;
27201;SDS011;14717;46.924;15.474;2023-06-26T15:36:31;7.35;;;3.47;;
27201;SDS011;14717;46.924;15.474;2023-06-26T15:38:57;6.13;;;4.30;;
27201;SDS011;14717;46.924;15.474;2023-06-26T15:41:22;6.50;;;4.28;;
27201;SDS011;14717;46.924;15.474;2023-06-26T15:43:48;6.80;;;3.58;;
27201;SDS011;14717;46.924;15.474;2023-06-26T15:46:13;7.45;;;3.60;;
27201;SDS011;14717;46.924;15.474;2023-06-26T15:48:38;6.40;;;3.75;;
27201;SDS011;14717;46.924;15.474;2023-06-26T15:51:04;5.85;;;3.70;;